Webcam

2022/09/25 22:20 EBBR 252220Z 22005KT CAVOK 10/08 Q1012 NOSIG

Webcam

--- Refresh now ---